createdAt,value
2018-08-10T00:00:06.648Z,2.10
2018-08-10T00:02:43.965Z,1.93
2018-08-10T00:05:20.909Z,2.10
2018-08-10T00:07:57.948Z,1.93
2018-08-10T00:10:34.665Z,1.70
2018-08-10T00:13:11.516Z,2.20
2018-08-10T00:15:48.372Z,2.00
2018-08-10T00:18:24.957Z,2.10
2018-08-10T00:21:05.909Z,2.23
2018-08-10T00:23:42.614Z,2.30
2018-08-10T00:26:19.862Z,2.30
2018-08-10T00:28:56.608Z,2.03
2018-08-10T00:31:33.613Z,2.30
2018-08-10T00:34:10.498Z,2.00
2018-08-10T00:36:47.409Z,2.40
2018-08-10T00:39:24.633Z,2.30
2018-08-10T00:42:02.316Z,1.90
2018-08-10T00:44:39.053Z,2.17
2018-08-10T00:47:19.291Z,2.10
2018-08-10T00:49:55.639Z,1.90
2018-08-10T00:52:38.092Z,1.80
2018-08-10T00:55:16.010Z,2.10
2018-08-10T00:57:53.436Z,2.23
2018-08-10T01:00:29.823Z,2.13
2018-08-10T01:03:07.737Z,1.77
2018-08-10T01:05:44.467Z,2.20
2018-08-10T01:08:21.596Z,1.97
2018-08-10T01:10:57.897Z,2.07
2018-08-10T01:13:39.240Z,2.20
2018-08-10T01:16:15.801Z,1.97
2018-08-10T01:18:52.971Z,1.90
2018-08-10T01:21:29.783Z,2.10
2018-08-10T01:24:06.673Z,2.10
2018-08-10T01:26:43.316Z,1.90
2018-08-10T01:29:20.032Z,2.00
2018-08-10T01:31:56.096Z,2.00
2018-08-10T01:34:32.991Z,1.93
2018-08-10T01:37:09.678Z,2.13
2018-08-10T01:39:49.163Z,2.20
2018-08-10T01:42:25.998Z,1.80
2018-08-10T01:45:03.499Z,1.77
2018-08-10T01:47:39.799Z,1.90
2018-08-10T01:50:27.030Z,2.10
2018-08-10T01:53:03.581Z,2.30
2018-08-10T01:55:40.360Z,2.03
2018-08-10T01:58:16.457Z,1.80
2018-08-10T02:00:53.242Z,2.13
2018-08-10T02:03:30.174Z,1.87
2018-08-10T02:06:07.057Z,2.00
2018-08-10T02:08:43.331Z,1.80
2018-08-10T02:11:21.860Z,2.10
2018-08-10T02:13:58.325Z,1.87
2018-08-10T02:16:37.245Z,2.47
2018-08-10T02:19:13.856Z,2.00
2018-08-10T02:21:50.916Z,1.70
2018-08-10T02:24:27.486Z,1.63
2018-08-10T02:27:04.922Z,1.80
2018-08-10T02:29:41.083Z,1.63
2018-08-10T02:32:18.646Z,1.90
2018-08-10T02:34:55.231Z,1.67
2018-08-10T02:37:32.290Z,1.80
2018-08-10T02:40:12.653Z,1.90
2018-08-10T02:42:50.332Z,1.73
2018-08-10T02:45:27.178Z,2.03
2018-08-10T02:48:08.486Z,1.70
2018-08-10T02:50:44.848Z,1.70
2018-08-10T02:53:21.908Z,1.60
2018-08-10T02:55:58.711Z,1.87
2018-08-10T02:58:39.854Z,1.90
2018-08-10T03:01:16.962Z,1.60
2018-08-10T03:03:59.077Z,1.60
2018-08-10T03:06:35.583Z,1.80
2018-08-10T03:09:12.815Z,1.70
2018-08-10T03:11:49.164Z,2.23
2018-08-10T03:14:25.820Z,2.30
2018-08-10T03:17:02.277Z,1.80
2018-08-10T03:19:40.150Z,1.80
2018-08-10T03:22:17.277Z,1.80
2018-08-10T03:24:58.243Z,1.83
2018-08-10T03:27:36.022Z,1.97
2018-08-10T03:30:15.031Z,1.90
2018-08-10T03:32:51.723Z,1.80
2018-08-10T03:35:28.793Z,1.90
2018-08-10T03:38:06.347Z,1.80
2018-08-10T03:40:44.082Z,1.90
2018-08-10T03:43:22.603Z,1.47
2018-08-10T03:46:25.511Z,1.60
2018-08-10T03:49:03.671Z,1.57
2018-08-10T03:51:43.270Z,2.03
2018-08-10T03:54:20.124Z,1.90
2018-08-10T03:56:56.888Z,1.60
2018-08-10T03:59:33.625Z,1.50
2018-08-10T04:02:10.442Z,1.40
2018-08-10T04:04:47.334Z,1.50
2018-08-10T04:07:25.961Z,1.50
2018-08-10T04:10:02.524Z,1.40
2018-08-10T04:12:43.188Z,1.47
2018-08-10T04:15:20.693Z,1.50
2018-08-10T04:17:57.482Z,1.70
2018-08-10T04:20:34.075Z,1.70
2018-08-10T04:23:11.698Z,1.70
2018-08-10T04:25:48.305Z,1.90
2018-08-10T04:28:24.879Z,1.43
2018-08-10T04:31:01.566Z,1.70
2018-08-10T04:33:37.779Z,1.60
2018-08-10T04:36:14.319Z,1.60
2018-08-10T04:38:54.323Z,1.73
2018-08-10T04:41:32.136Z,1.83
2018-08-10T04:44:11.095Z,1.60
2018-08-10T04:46:48.944Z,1.90
2018-08-10T04:49:29.798Z,1.50
2018-08-10T04:52:06.148Z,1.50
2018-08-10T04:54:43.183Z,1.63
2018-08-10T04:57:25.097Z,1.60
2018-08-10T05:00:01.489Z,1.57
2018-08-10T05:02:38.141Z,1.50
2018-08-10T05:05:18.226Z,1.53
2018-08-10T05:07:58.733Z,1.80
2018-08-10T05:10:38.164Z,1.60
2018-08-10T05:13:16.643Z,1.50
2018-08-10T05:15:56.100Z,1.67
2018-08-10T05:18:37.106Z,1.50
2018-08-10T05:21:15.473Z,1.50
2018-08-10T05:23:52.315Z,1.43
2018-08-10T05:26:29.643Z,1.77
2018-08-10T05:29:07.435Z,1.93
2018-08-10T05:31:49.260Z,1.53
2018-08-10T05:34:27.038Z,1.37
2018-08-10T05:37:10.442Z,1.53
2018-08-10T05:39:49.464Z,1.50
2018-08-10T05:42:26.968Z,1.57
2018-08-10T05:45:03.523Z,1.50
2018-08-10T05:47:41.084Z,1.50
2018-08-10T05:50:19.239Z,1.57
2018-08-10T05:52:57.709Z,1.57
2018-08-10T05:55:34.306Z,1.67
2018-08-10T05:58:11.250Z,1.40
2018-08-10T06:00:48.282Z,1.40
2018-08-10T06:03:28.098Z,1.80
2018-08-10T06:06:04.688Z,1.20
2018-08-10T06:08:43.341Z,1.50
2018-08-10T06:11:23.777Z,1.20
2018-08-10T06:14:03.476Z,1.30
2018-08-10T06:16:41.945Z,1.20
2018-08-10T06:19:19.194Z,1.20
2018-08-10T06:21:56.007Z,1.10
2018-08-10T06:24:32.928Z,1.20
2018-08-10T06:27:10.426Z,1.50
2018-08-10T06:29:49.491Z,1.07
2018-08-10T06:32:26.282Z,1.30
2018-08-10T06:35:07.992Z,1.10
2018-08-10T06:37:44.882Z,1.20
2018-08-10T06:40:22.138Z,1.10
2018-08-10T06:42:58.841Z,1.20
2018-08-10T06:45:35.882Z,2.17
2018-08-10T06:48:15.672Z,1.40
2018-08-10T06:50:54.579Z,1.20
2018-08-10T06:53:31.122Z,1.30
2018-08-10T06:56:08.927Z,1.77
2018-08-10T06:58:45.920Z,1.40
2018-08-10T07:01:22.821Z,1.30
2018-08-10T07:03:59.649Z,1.20
2018-08-10T07:06:37.573Z,1.60
2018-08-10T07:09:15.136Z,1.10
2018-08-10T07:11:51.945Z,1.40
2018-08-10T07:14:29.467Z,1.40
2018-08-10T07:17:14.097Z,1.20
2018-08-10T07:19:53.403Z,1.43
2018-08-10T07:22:31.491Z,1.10
2018-08-10T07:25:09.161Z,1.57
2018-08-10T07:27:47.836Z,1.70
2018-08-10T07:30:24.829Z,1.40
2018-08-10T07:33:01.833Z,1.50
2018-08-10T07:35:38.233Z,1.40
2018-08-10T07:38:15.991Z,1.13
2018-08-10T07:40:52.900Z,1.10
2018-08-10T07:43:33.340Z,1.40
2018-08-10T07:46:11.779Z,1.10
2018-08-10T07:48:49.802Z,1.37
2018-08-10T07:51:26.283Z,1.20
2018-08-10T07:54:03.507Z,1.30
2018-08-10T07:56:40.158Z,1.20
2018-08-10T07:59:17.708Z,1.30
2018-08-10T08:01:54.727Z,1.20
2018-08-10T08:04:32.531Z,1.20
2018-08-10T08:07:09.555Z,1.20
2018-08-10T08:09:48.659Z,1.10
2018-08-10T08:12:25.282Z,1.20
2018-08-10T08:15:02.624Z,1.17
2018-08-10T08:17:39.521Z,1.40
2018-08-10T08:20:20.681Z,1.50
2018-08-10T08:23:03.525Z,2.20
2018-08-10T08:25:41.595Z,1.23
2018-08-10T08:28:18.885Z,1.20
2018-08-10T08:30:59.058Z,1.30
2018-08-10T08:36:23.189Z,1.20
2018-08-10T08:41:07.590Z,1.10
2018-08-10T08:45:58.613Z,1.60
2018-08-10T08:48:42.706Z,1.10
2018-08-10T08:51:21.513Z,1.27
2018-08-10T08:55:38.052Z,1.40
2018-08-10T08:58:14.782Z,1.10
2018-08-10T09:00:51.693Z,1.40
2018-08-10T09:03:39.464Z,1.20
2018-08-10T09:06:16.609Z,1.57
2018-08-10T09:09:03.943Z,1.30
2018-08-10T09:11:40.767Z,1.20
2018-08-10T09:14:52.634Z,1.50
2018-08-10T09:17:29.382Z,1.40
2018-08-10T09:20:09.399Z,1.50
2018-08-10T09:22:46.218Z,1.50
2018-08-10T09:25:24.800Z,1.50
2018-08-10T09:28:01.933Z,1.40
2018-08-10T09:30:39.399Z,1.37
2018-08-10T09:33:16.553Z,1.50
2018-08-10T09:35:53.864Z,1.50
2018-08-10T09:38:32.800Z,1.50
2018-08-10T09:41:11.206Z,1.60
2018-08-10T09:43:47.970Z,1.57
2018-08-10T09:46:30.979Z,1.40
2018-08-10T09:49:08.544Z,1.30
2018-08-10T09:51:50.221Z,1.70
2018-08-10T09:54:28.808Z,1.53
2018-08-10T09:57:08.924Z,1.10
2018-08-10T09:59:46.812Z,1.40
2018-08-10T10:02:28.692Z,1.40
2018-08-10T10:05:07.316Z,1.20
2018-08-10T10:07:46.717Z,1.40
2018-08-10T10:10:24.976Z,1.40
2018-08-10T10:13:02.434Z,1.33
2018-08-10T10:15:39.173Z,1.30
2018-08-10T10:18:17.252Z,1.50
2018-08-10T10:20:54.557Z,1.40
2018-08-10T10:23:34.094Z,1.40
2018-08-10T10:26:11.453Z,1.50
2018-08-10T10:28:48.364Z,1.33
2018-08-10T10:31:24.984Z,1.33
2018-08-10T10:34:02.889Z,1.17
2018-08-10T10:36:39.997Z,1.30
2018-08-10T10:39:18.288Z,1.50
2018-08-10T10:41:55.746Z,1.50
2018-08-10T10:44:33.652Z,1.50
2018-08-10T10:47:10.446Z,1.83
2018-08-10T10:49:49.751Z,1.30
2018-08-10T10:52:26.184Z,1.40
2018-08-10T10:55:04.090Z,1.20
2018-08-10T10:57:42.056Z,1.30
2018-08-10T11:00:21.215Z,1.60
2018-08-10T11:03:00.395Z,1.30
2018-08-10T11:05:40.598Z,1.40
2018-08-10T11:08:20.559Z,1.27
2018-08-10T11:11:01.517Z,1.50
2018-08-10T11:13:39.197Z,1.20
2018-08-10T11:16:21.605Z,1.40
2018-08-10T11:19:03.445Z,1.40
2018-08-10T11:21:42.509Z,1.60
2018-08-10T11:24:23.672Z,1.40
2018-08-10T11:27:06.318Z,1.27
2018-08-10T11:29:44.279Z,1.17
2018-08-10T11:32:23.295Z,1.20
2018-08-10T11:35:06.928Z,1.30
2018-08-10T11:37:45.656Z,1.20
2018-08-10T11:40:25.584Z,1.40
2018-08-10T11:43:05.823Z,1.60
2018-08-10T11:45:43.799Z,1.57
2018-08-10T11:48:23.010Z,1.10
2018-08-10T11:53:47.452Z,1.20
2018-08-10T11:56:25.807Z,1.40
2018-08-10T11:59:07.667Z,1.27
2018-08-10T12:01:45.593Z,1.40
2018-08-10T12:04:25.137Z,1.30
2018-08-10T12:07:02.800Z,1.30
2018-08-10T12:09:40.053Z,1.27
2018-08-10T12:12:16.626Z,1.60
2018-08-10T12:14:53.556Z,1.10
2018-08-10T12:17:30.556Z,1.00
2018-08-10T12:20:10.397Z,1.20
2018-08-10T12:22:47.354Z,1.13
2018-08-10T12:25:25.208Z,1.20
2018-08-10T12:28:01.845Z,1.20
2018-08-10T12:30:38.871Z,1.20
2018-08-10T12:33:16.348Z,1.33
2018-08-10T12:35:53.426Z,1.10
2018-08-10T12:38:31.456Z,1.20
2018-08-10T12:41:14.332Z,1.10
2018-08-10T12:43:53.513Z,1.13
2018-08-10T12:46:31.749Z,1.10
2018-08-10T12:49:13.917Z,1.10
2018-08-10T12:51:51.763Z,1.20
2018-08-10T12:54:30.513Z,1.20
2018-08-10T12:57:10.553Z,1.10
2018-08-10T13:02:33.043Z,0.97
2018-08-10T13:05:12.502Z,1.30
2018-08-10T13:07:54.010Z,1.27
2018-08-10T13:10:34.709Z,1.30
2018-08-10T13:13:14.584Z,1.20
2018-08-10T13:15:52.651Z,1.03
2018-08-10T13:18:31.957Z,1.10
2018-08-10T13:21:11.906Z,2.60
2018-08-10T13:23:50.027Z,1.40
2018-08-10T13:26:26.447Z,1.33
2018-08-10T13:29:04.662Z,1.20
2018-08-10T13:31:45.737Z,1.23
2018-08-10T13:34:23.365Z,1.40
2018-08-10T13:37:07.536Z,1.30
2018-08-10T13:39:46.842Z,1.23
2018-08-10T13:42:24.643Z,1.40
2018-08-10T13:47:56.907Z,1.30
2018-08-10T13:50:41.446Z,1.30
2018-08-10T13:53:19.453Z,1.10
2018-08-10T13:55:56.876Z,1.20
2018-08-10T13:58:43.617Z,1.10
2018-08-10T14:01:21.369Z,1.20
2018-08-10T14:04:27.571Z,1.27
2018-08-10T14:07:07.803Z,1.20
2018-08-10T14:09:45.470Z,1.07
2018-08-10T14:12:22.553Z,1.20
2018-08-10T14:14:59.687Z,1.27
2018-08-10T14:17:41.307Z,1.40
2018-08-10T14:20:19.761Z,1.57
2018-08-10T14:22:57.277Z,1.70
2018-08-10T14:25:34.879Z,1.37
2018-08-10T14:28:12.098Z,1.50
2018-08-10T14:30:49.247Z,1.40
2018-08-10T14:33:27.045Z,1.40
2018-08-10T14:36:10.148Z,1.30
2018-08-10T14:38:47.479Z,1.30
2018-08-10T14:41:24.404Z,1.37
2018-08-10T14:44:03.691Z,1.50
2018-08-10T14:46:45.918Z,1.40
2018-08-10T14:49:29.811Z,1.40
2018-08-10T14:52:08.362Z,1.83
2018-08-10T14:54:48.227Z,2.00
2018-08-10T14:57:25.834Z,1.30
2018-08-10T15:00:08.742Z,1.43
2018-08-10T15:02:49.644Z,1.37
2018-08-10T15:05:29.878Z,1.40
2018-08-10T15:08:08.805Z,1.60
2018-08-10T15:10:46.721Z,2.07
2018-08-10T15:13:23.585Z,1.23
2018-08-10T15:16:00.548Z,1.37
2018-08-10T15:18:38.252Z,1.30
2018-08-10T15:21:15.426Z,1.30
2018-08-10T15:23:56.829Z,1.43
2018-08-10T15:26:34.535Z,1.63
2018-08-10T15:29:11.655Z,1.93
2018-08-10T15:31:52.463Z,1.30
2018-08-10T15:34:30.829Z,1.43
2018-08-10T15:37:14.325Z,1.40
2018-08-10T15:39:53.357Z,1.33
2018-08-10T15:42:35.335Z,1.50
2018-08-10T15:45:14.117Z,1.30
2018-08-10T15:47:51.784Z,1.47
2018-08-10T15:50:31.049Z,1.30
2018-08-10T15:55:57.616Z,1.10
2018-08-10T15:58:36.448Z,1.30
2018-08-10T16:01:15.954Z,1.27
2018-08-10T16:03:57.742Z,1.40
2018-08-10T16:06:38.768Z,1.20
2018-08-10T16:09:17.933Z,1.23
2018-08-10T16:11:56.033Z,1.20
2018-08-10T16:14:36.125Z,1.40
2018-08-10T16:17:18.656Z,1.17
2018-08-10T16:20:03.726Z,1.33
2018-08-10T16:22:46.801Z,1.27
2018-08-10T16:25:25.338Z,1.47
2018-08-10T16:28:03.214Z,1.33
2018-08-10T16:30:42.381Z,1.40
2018-08-10T16:33:23.644Z,1.30
2018-08-10T16:36:02.381Z,1.47
2018-08-10T16:38:40.922Z,1.30
2018-08-10T16:41:18.652Z,1.40
2018-08-10T16:43:57.317Z,1.30
2018-08-10T16:46:39.301Z,1.50
2018-08-10T16:49:19.325Z,1.20
2018-08-10T16:52:01.956Z,1.10
2018-08-10T16:54:39.822Z,1.20
2018-08-10T16:57:20.593Z,1.30
2018-08-10T16:59:57.699Z,1.70
2018-08-10T17:02:34.823Z,1.73
2018-08-10T18:20:55.972Z,1.90
2018-08-10T18:23:33.408Z,1.20
2018-08-10T18:26:10.719Z,1.30
2018-08-10T18:32:25.319Z,1.30
2018-08-10T18:35:07.111Z,1.43
2018-08-10T18:37:51.202Z,1.30
2018-08-10T18:40:28.921Z,1.63
2018-08-10T18:43:06.621Z,1.57
2018-08-10T18:45:43.405Z,1.40
2018-08-10T18:48:22.527Z,1.60
2018-08-10T18:51:00.101Z,1.57
2018-08-10T18:53:38.226Z,1.40
2018-08-10T18:56:14.927Z,1.60
2018-08-10T18:58:56.776Z,1.50
2018-08-10T19:01:34.472Z,2.07
2018-08-10T19:04:12.210Z,1.40
2018-08-10T19:06:51.500Z,2.30
2018-08-10T19:09:29.661Z,1.50
2018-08-10T19:12:07.263Z,1.40
2018-08-10T19:14:45.838Z,1.80
2018-08-10T19:17:23.057Z,1.70
2018-08-10T19:20:05.372Z,1.50
2018-08-10T19:22:43.343Z,1.33
2018-08-10T19:28:07.630Z,1.50
2018-08-10T19:30:45.847Z,1.40
2018-08-10T19:33:23.274Z,1.30
2018-08-10T19:36:03.263Z,1.77
2018-08-10T19:38:41.650Z,1.60
2018-08-10T19:41:19.812Z,1.40
2018-08-10T19:43:56.850Z,2.60
2018-08-10T19:46:34.581Z,2.13
2018-08-10T19:49:11.949Z,2.73
2018-08-10T19:51:54.829Z,2.00
2018-08-10T19:54:32.943Z,2.60
2018-08-10T19:57:12.272Z,2.90
2018-08-10T19:59:53.940Z,2.20
2018-08-10T20:02:32.278Z,2.13
2018-08-10T20:05:10.222Z,2.87
2018-08-10T20:07:50.462Z,2.40
2018-08-10T20:10:27.531Z,4.43
2018-08-10T20:13:07.315Z,2.40
2018-08-10T20:15:45.015Z,2.40
2018-08-10T20:18:27.678Z,2.20
2018-08-10T20:21:04.773Z,2.50
2018-08-10T20:23:44.518Z,2.47
2018-08-10T20:26:23.082Z,1.90
2018-08-10T20:29:12.380Z,1.67
2018-08-10T20:31:49.889Z,2.80
2018-08-10T20:34:27.437Z,2.37
2018-08-10T20:37:04.859Z,1.80
2018-08-10T20:39:47.895Z,2.10
2018-08-10T20:42:25.116Z,2.27
2018-08-10T20:45:09.317Z,2.30
2018-08-10T20:47:46.255Z,2.20
2018-08-10T20:50:24.896Z,2.20
2018-08-10T20:53:02.690Z,2.00
2018-08-10T20:55:45.054Z,2.20
2018-08-10T20:58:21.540Z,2.00
2018-08-10T21:01:00.419Z,2.43
2018-08-10T21:03:37.297Z,2.47
2018-08-10T21:06:16.594Z,2.17
2018-08-10T21:08:53.047Z,2.20
2018-08-10T21:11:31.556Z,2.50
2018-08-10T21:14:08.211Z,2.13
2018-08-10T21:16:45.439Z,2.23
2018-08-10T21:19:21.760Z,2.30
2018-08-10T21:21:59.130Z,2.70
2018-08-10T21:24:36.667Z,2.60
2018-08-10T21:27:16.339Z,2.97
2018-08-10T21:29:53.745Z,2.40
2018-08-10T21:32:31.264Z,2.90
2018-08-10T21:35:07.948Z,2.53
2018-08-10T21:37:48.196Z,2.80
2018-08-10T21:40:25.766Z,2.80
2018-08-10T21:43:06.053Z,2.50
2018-08-10T21:45:43.814Z,2.70
2018-08-10T21:48:20.746Z,2.50
2018-08-10T21:50:57.194Z,2.37
2018-08-10T21:53:35.591Z,2.20
2018-08-10T21:56:12.710Z,2.43
2018-08-10T21:58:49.886Z,2.40
2018-08-10T22:01:27.204Z,2.20
2018-08-10T22:04:04.568Z,2.23
2018-08-10T22:09:05.430Z,2.50
2018-08-10T22:11:43.188Z,2.60
2018-08-10T22:14:25.787Z,2.70
2018-08-10T22:17:07.808Z,2.30
2018-08-10T22:19:45.640Z,2.90
2018-08-10T22:22:22.400Z,2.27
2018-08-10T22:24:59.712Z,2.70
2018-08-10T22:27:36.662Z,2.30
2018-08-10T22:30:13.687Z,2.33
2018-08-10T22:32:50.670Z,2.37
2018-08-10T22:35:31.906Z,2.33
2018-08-10T22:38:08.904Z,2.30
2018-08-10T22:40:48.017Z,2.30
2018-08-10T22:43:25.379Z,2.40
2018-08-10T22:46:07.855Z,2.50
2018-08-10T22:48:44.753Z,2.30
2018-08-10T22:51:22.979Z,2.30
2018-08-10T22:54:06.728Z,2.23
2018-08-10T22:56:50.984Z,2.60
2018-08-10T22:59:28.756Z,2.37
2018-08-10T23:02:10.734Z,2.70
2018-08-10T23:04:48.246Z,3.10
2018-08-10T23:07:30.699Z,2.13
2018-08-10T23:10:09.209Z,2.67
2018-08-10T23:12:48.354Z,2.90
2018-08-10T23:15:26.096Z,2.43
2018-08-10T23:18:08.348Z,2.13
2018-08-10T23:20:45.422Z,2.00
2018-08-10T23:23:31.525Z,2.03
2018-08-10T23:26:11.995Z,2.00
2018-08-10T23:28:50.864Z,1.87
2018-08-10T23:31:30.455Z,1.60
2018-08-10T23:34:08.785Z,1.93
2018-08-10T23:36:46.682Z,1.73
2018-08-10T23:39:25.467Z,1.70
2018-08-10T23:42:03.443Z,1.63
2018-08-10T23:44:51.833Z,1.77
2018-08-10T23:47:28.814Z,1.40
2018-08-10T23:50:11.529Z,1.50
2018-08-10T23:52:52.206Z,1.87
2018-08-10T23:55:41.800Z,1.60
